Sandytown, Indiana
Current Conditions -  °F | °C
As of 4:55 AM on Saturday 25 Oct 2014 (Local Time) from KPRG Reporting Station
Broken Clouds Broken Clouds  
Wind Chill: 59°   Ceiling: 6000
Heat Index: 59°   Visibility: 10mi
Dew Point: 54°   Wind: 6mph
Humidity: 84%   Direction: 220°SW
Pressure: 29.96"   Gusts: NA
Location:  39.6513°N, 87.4607°W
Report Text: KPRG 250855Z AUTO 22005KT 10SM SCT049 BKN060 15/12 A2996 RMK AO2 T01480121
Loading
Personal Weather Stations






























Interactive Weather Map
Tropical Storm Tracking
New forecast layout! Learn more

10-Day Weather Forecast

Advertisements
Track Severe Weather on mobile